Time;durP1;ratioP1;P1;durP2;ratioP2;P2;SDS_P1;SDS_P2;PMS_P1;PMS_P2;Temp;Humidity;BMP_temperature;BMP_pressure;BME280_temperature;BME280_humidity;BME280_pressure;Samples;Min_cycle;Max_cycle;Signal;HPM_P1;HPM_P2
2021/04/07 00:00:41;;;;;;;0.30;0.13;;;;;;;3.23;68.60;99899.28;5065410;28;20598;-57
2021/04/07 00:03:08;;;;;;;0.20;0.10;;;;;;;3.28;68.07;99903.63;5060791;28;20442;-56
2021/04/07 00:05:37;;;;;;;0.20;0.10;;;;;;;3.27;67.92;99901.00;5061123;28;20545;-57
2021/04/07 00:08:04;;;;;;;0.20;0.10;;;;;;;3.19;68.66;99910.69;5061867;28;20503;-57
2021/04/07 00:10:37;;;;;;;0.20;0.10;;;;;;;3.25;68.63;99921.16;5059443;28;20472;-57
2021/04/07 00:13:04;;;;;;;0.20;0.10;;;;;;;3.48;68.04;99915.78;5062857;28;20442;-57
2021/04/07 00:15:30;;;;;;;0.20;0.10;;;;;;;3.36;69.12;99922.00;5066127;28;20466;-56
2021/04/07 00:17:57;;;;;;;0.20;0.10;;;;;;;3.24;69.99;99922.03;5062064;28;20454;-57
2021/04/07 00:20:25;;;;;;;0.20;0.10;;;;;;;3.11;69.33;99923.84;5058949;28;20470;-57
2021/04/07 00:22:51;;;;;;;0.20;0.10;;;;;;;3.09;69.74;99925.63;5062536;28;20504;-57
2021/04/07 00:25:19;;;;;;;0.20;0.20;;;;;;;3.28;69.53;99916.75;5065560;28;20928;-57
2021/04/07 00:27:53;;;;;;;0.20;0.10;;;;;;;3.23;70.13;99920.31;5063345;28;20450;-57
2021/04/07 00:30:21;;;;;;;0.20;0.10;;;;;;;3.07;70.37;99929.13;5058774;28;21006;-58
2021/04/07 00:32:47;;;;;;;0.20;0.10;;;;;;;3.19;70.30;99919.44;5060238;28;20500;-56
2021/04/07 00:35:13;;;;;;;0.20;0.10;;;;;;;3.28;70.05;99923.75;5059386;28;20453;-57
2021/04/07 00:37:40;;;;;;;0.20;0.10;;;;;;;3.22;68.65;99926.44;5060000;28;20462;-57
2021/04/07 00:40:07;;;;;;;0.20;0.10;;;;;;;3.22;67.49;99932.56;5064369;28;20517;-57
2021/04/07 00:42:34;;;;;;;0.20;0.10;;;;;;;3.43;66.70;99935.97;5064599;28;20450;-56
2021/04/07 00:45:00;;;;;;;0.30;0.10;;;;;;;3.51;66.82;99940.28;5058971;28;20446;-57
2021/04/07 00:47:27;;;;;;;0.20;0.10;;;;;;;3.24;66.95;99937.81;5059943;28;20462;-57
2021/04/07 00:49:53;;;;;;;0.20;0.10;;;;;;;3.46;66.05;99951.72;5071241;28;20469;-56
2021/04/07 00:52:20;;;;;;;0.20;0.10;;;;;;;3.57;65.69;99944.66;5072296;28;20445;-57
2021/04/07 00:54:46;;;;;;;0.20;0.10;;;;;;;3.65;64.90;99947.22;5058588;28;20521;-56
2021/04/07 00:57:12;;;;;;;0.20;0.10;;;;;;;3.35;67.05;99943.88;5072265;28;20465;-57
2021/04/07 00:59:39;;;;;;;0.20;0.10;;;;;;;3.22;66.92;99947.44;5034274;28;668868;-56
2021/04/07 01:02:06;;;;;;;0.20;0.10;;;;;;;3.33;67.74;99955.28;5059989;28;20669;-56
2021/04/07 01:04:33;;;;;;;0.20;0.10;;;;;;;3.25;68.61;99958.81;5066692;28;20442;-57
2021/04/07 01:07:01;;;;;;;0.20;0.10;;;;;;;3.13;68.67;99950.09;5060303;28;20455;-56
2021/04/07 01:09:27;;;;;;;0.20;0.10;;;;;;;3.20;69.16;99962.34;5065628;28;20520;-57
2021/04/07 01:11:53;;;;;;;0.20;0.20;;;;;;;3.08;69.63;99959.75;5065737;28;20511;-57
2021/04/07 01:14:20;;;;;;;0.20;0.10;;;;;;;3.20;68.95;99967.59;5059290;28;20534;-57
2021/04/07 01:16:47;;;;;;;0.20;0.10;;;;;;;3.34;68.64;99960.53;5058828;28;20458;-57
2021/04/07 01:19:13;;;;;;;0.20;0.10;;;;;;;3.23;68.63;99965.81;5064678;28;20475;-56
2021/04/07 01:21:42;;;;;;;0.20;0.10;;;;;;;3.42;68.20;99963.09;5065679;28;20454;-56
2021/04/07 01:24:09;;;;;;;0.20;0.20;;;;;;;3.32;69.25;99957.03;5066016;28;20530;-58
2021/04/07 01:26:35;;;;;;;0.20;0.10;;;;;;;3.51;68.58;99965.69;5066253;28;20445;-58
2021/04/07 01:29:01;;;;;;;0.20;0.13;;;;;;;3.43;68.53;99962.25;5059286;28;20474;-56
2021/04/07 01:31:28;;;;;;;0.20;0.10;;;;;;;3.74;67.71;99962.94;5058312;28;20538;-57
2021/04/07 01:33:54;;;;;;;0.20;0.10;;;;;;;3.39;67.75;99957.88;5065437;28;20502;-57
2021/04/07 01:36:24;;;;;;;0.20;0.10;;;;;;;3.64;67.18;99970.00;5064587;28;20453;-57
2021/04/07 01:38:51;;;;;;;0.20;0.10;;;;;;;3.33;67.63;99971.03;5064143;28;20498;-57
2021/04/07 01:41:19;;;;;;;0.20;0.10;;;;;;;3.19;68.36;99973.72;5065896;28;20872;-57
2021/04/07 01:43:47;;;;;;;0.20;0.17;;;;;;;3.06;69.47;99986.03;5059066;28;20500;-57
2021/04/07 01:46:14;;;;;;;0.20;0.10;;;;;;;2.97;70.19;99983.41;5059575;28;20859;-57
2021/04/07 01:48:41;;;;;;;0.20;0.10;;;;;;;3.07;69.33;99986.91;5064106;28;20450;-57
2021/04/07 01:51:10;;;;;;;0.20;0.10;;;;;;;2.98;69.81;99987.78;5068421;28;20454;-57
2021/04/07 01:53:37;;;;;;;0.20;0.10;;;;;;;3.06;69.53;99988.66;5062484;28;20497;-57
2021/04/07 01:56:03;;;;;;;0.20;0.10;;;;;;;3.03;70.03;99993.03;5068849;28;20513;-56
2021/04/07 01:58:36;;;;;;;0.20;0.10;;;;;;;3.08;71.03;99997.38;5060724;28;20439;-57
2021/04/07 02:01:03;;;;;;;0.20;0.10;;;;;;;3.15;70.30;99995.59;5066206;28;20819;-57
2021/04/07 02:03:29;;;;;;;0.20;0.10;;;;;;;2.98;70.62;99987.78;5059880;28;20454;-57
2021/04/07 02:05:55;;;;;;;0.20;0.10;;;;;;;2.99;70.59;99992.16;5065465;28;20524;-57
2021/04/07 02:08:22;;;;;;;0.20;0.10;;;;;;;3.19;70.63;99989.47;5062782;28;20453;-57
2021/04/07 02:10:48;;;;;;;0.20;0.10;;;;;;;3.23;70.44;99997.34;5058502;28;20981;-56
2021/04/07 02:13:15;;;;;;;0.20;0.10;;;;;;;2.68;71.86;99989.59;5059877;28;20451;-57
2021/04/07 02:15:41;;;;;;;0.20;0.10;;;;;;;3.08;70.63;99997.38;5065583;28;20450;-56
2021/04/07 02:18:07;;;;;;;0.20;0.20;;;;;;;3.05;70.39;100002.66;5061614;28;20454;-57
2021/04/07 02:20:33;;;;;;;0.20;0.10;;;;;;;2.95;71.55;100006.19;5058540;28;20500;-56
2021/04/07 02:22:59;;;;;;;0.20;0.10;;;;;;;2.86;71.33;100000.94;5061296;28;20508;-57
2021/04/07 02:25:25;;;;;;;0.20;0.10;;;;;;;2.85;71.65;99999.19;5065169;28;20480;-57
2021/04/07 02:27:52;;;;;;;0.20;0.10;;;;;;;2.84;71.88;100005.31;5063233;28;20456;-57
2021/04/07 02:30:18;;;;;;;0.20;0.10;;;;;;;2.92;70.76;100000.94;5058189;28;20822;-57
2021/04/07 02:32:44;;;;;;;0.20;0.20;;;;;;;2.68;72.51;100001.84;5060847;28;20459;-57
2021/04/07 02:35:11;;;;;;;0.20;0.10;;;;;;;2.53;72.75;100002.75;5056680;28;20514;-56
2021/04/07 02:37:37;;;;;;;0.20;0.10;;;;;;;2.47;73.45;100012.34;5060819;28;20458;-56
2021/04/07 02:40:04;;;;;;;0.20;0.20;;;;;;;2.37;73.87;100009.75;5066487;28;20467;-57
2021/04/07 02:42:31;;;;;;;0.20;0.10;;;;;;;2.37;73.19;100014.13;5067808;28;20454;-56
2021/04/07 02:44:57;;;;;;;0.20;0.10;;;;;;;2.24;74.29;100015.00;5061177;28;20450;-57
2021/04/07 02:47:23;;;;;;;0.20;0.10;;;;;;;2.26;73.65;100016.75;5064055;28;20446;-56
2021/04/07 02:49:49;;;;;;;0.20;0.10;;;;;;;2.28;74.52;100035.97;5068758;28;20466;-57
2021/04/07 02:52:15;;;;;;;0.20;0.20;;;;;;;2.16;74.83;100038.56;5067478;28;20442;-57
2021/04/07 02:54:42;;;;;;;0.20;0.10;;;;;;;2.07;74.30;100031.59;5061690;28;20831;-57
2021/04/07 02:57:08;;;;;;;0.20;0.10;;;;;;;2.13;74.06;100037.69;5074041;28;20462;-57
2021/04/07 02:59:34;;;;;;;0.20;0.10;;;;;;;2.11;74.99;100042.94;5061450;28;20492;-57
2021/04/07 03:02:00;;;;;;;0.20;0.10;;;;;;;2.33;74.07;100051.69;5062944;28;20458;-57
2021/04/07 03:04:26;;;;;;;0.20;0.10;;;;;;;2.24;74.08;100059.56;5067319;28;20446;-56
2021/04/07 03:06:53;;;;;;;0.20;0.20;;;;;;;2.22;73.70;100061.31;5064015;28;20458;-56
2021/04/07 03:09:19;;;;;;;0.20;0.10;;;;;;;2.29;74.43;100066.56;5068470;28;20471;-57
2021/04/07 03:11:45;;;;;;;0.20;0.10;;;;;;;2.24;74.36;100063.06;5066133;28;20454;-57
2021/04/07 03:14:12;;;;;;;0.20;0.10;;;;;;;2.19;74.15;100061.28;5060484;28;20542;-57
2021/04/07 03:16:38;;;;;;;0.20;0.10;;;;;;;2.28;74.66;100064.81;5063862;28;20451;-58
2021/04/07 03:19:04;;;;;;;0.20;0.10;;;;;;;2.31;74.63;100062.19;5068571;28;20470;-56
2021/04/07 03:21:30;;;;;;;0.20;0.10;;;;;;;2.41;73.94;100063.06;5066074;28;20915;-57
2021/04/07 03:23:57;;;;;;;0.20;0.10;;;;;;;2.23;73.74;100065.69;5061847;28;20863;-57
2021/04/07 03:26:23;;;;;;;0.20;0.10;;;;;;;2.36;73.74;100085.81;5063738;28;20447;-57
2021/04/07 03:28:49;;;;;;;0.20;0.10;;;;;;;2.51;73.24;100077.94;5066813;28;20987;-57
2021/04/07 03:31:15;;;;;;;0.20;0.10;;;;;;;2.36;73.56;100076.19;5066428;28;20450;-57
2021/04/07 03:33:42;;;;;;;0.20;0.10;;;;;;;2.27;73.70;100076.16;5056299;28;20482;-57
2021/04/07 03:36:09;;;;;;;0.20;0.10;;;;;;;2.58;73.32;100069.19;5066360;28;20454;-57
2021/04/07 03:38:35;;;;;;;0.20;0.10;;;;;;;2.54;73.26;100063.97;5060104;28;20442;-57
2021/04/07 03:41:02;;;;;;;0.20;0.10;;;;;;;2.49;73.20;100068.34;5063024;28;20454;-57
2021/04/07 03:43:29;;;;;;;0.20;0.10;;;;;;;2.26;74.44;100084.03;5066682;28;20443;-57
2021/04/07 03:45:57;;;;;;;0.20;0.10;;;;;;;2.35;74.04;100079.69;5066450;28;20515;-57
2021/04/07 03:48:26;;;;;;;0.20;0.10;;;;;;;2.42;73.16;100092.78;5059572;28;20439;-57
2021/04/07 03:50:53;;;;;;;0.20;0.10;;;;;;;2.54;73.03;100098.94;5061540;28;20451;-57
2021/04/07 03:53:20;;;;;;;0.20;0.20;;;;;;;2.37;73.14;100101.53;5067368;28;20474;-57
2021/04/07 03:55:49;;;;;;;0.20;0.10;;;;;;;2.30;73.25;100094.53;5068364;28;20450;-57
2021/04/07 03:58:16;;;;;;;0.20;0.20;;;;;;;2.20;74.47;100099.78;5065392;28;20836;-58
2021/04/07 04:00:42;;;;;;;0.20;0.10;;;;;;;2.23;74.05;100102.41;5066993;28;20484;-57
2021/04/07 04:03:09;;;;;;;0.20;0.10;;;;;;;2.40;73.93;100105.91;5061820;28;20458;-57
2021/04/07 04:05:36;;;;;;;0.20;0.10;;;;;;;2.31;73.42;100101.50;5067226;28;20445;-56
2021/04/07 04:08:02;;;;;;;0.20;0.10;;;;;;;2.45;72.76;100104.16;5060728;28;20477;-57
2021/04/07 04:10:28;;;;;;;0.20;0.10;;;;;;;2.68;71.96;100106.81;5060590;28;20881;-57
2021/04/07 04:12:55;;;;;;;0.20;0.10;;;;;;;2.46;72.42;100108.53;5063488;28;20996;-56
2021/04/07 04:15:23;;;;;;;0.20;0.10;;;;;;;2.68;71.73;100105.06;5049004;28;20496;-57
2021/04/07 04:17:49;;;;;;;0.20;0.10;;;;;;;2.57;72.63;100111.16;5065761;28;20496;-56
2021/04/07 04:20:16;;;;;;;0.20;0.10;;;;;;;2.57;72.08;100114.66;5067288;28;20478;-57
2021/04/07 04:22:44;;;;;;;0.20;0.10;;;;;;;2.36;73.56;100119.91;5062100;28;20458;-57
2021/04/07 04:25:13;;;;;;;0.20;0.10;;;;;;;2.27;73.67;100107.63;5060061;28;20451;-57
2021/04/07 04:27:39;;;;;;;0.20;0.10;;;;;;;2.25;73.93;100121.63;5064649;28;20457;-57
2021/04/07 04:30:09;;;;;;;0.20;0.10;;;;;;;2.18;73.37;100117.22;5066884;28;20470;-56
2021/04/07 04:32:35;;;;;;;0.20;0.10;;;;;;;2.35;72.55;100124.28;5063073;28;20450;-57
2021/04/07 04:35:01;;;;;;;0.20;0.10;;;;;;;2.18;73.51;100128.59;5059806;28;20493;-57
2021/04/07 04:37:27;;;;;;;0.20;0.10;;;;;;;2.29;72.94;100132.09;5063704;28;20451;-57
2021/04/07 04:39:53;;;;;;;0.20;0.10;;;;;;;1.98;73.86;100143.38;5060218;28;20479;-57
2021/04/07 04:42:20;;;;;;;0.20;0.10;;;;;;;2.13;73.02;100146.06;5061564;28;20457;-58
2021/04/07 04:44:46;;;;;;;0.20;0.10;;;;;;;2.11;72.89;100147.81;5059614;28;20939;-57
2021/04/07 04:47:12;;;;;;;0.20;0.10;;;;;;;2.09;72.85;100152.16;5063317;28;20458;-57
2021/04/07 04:49:51;;;;;;;0.20;0.13;;;;;;;2.12;73.47;100151.31;5065988;28;20462;-57
2021/04/07 04:52:21;;;;;;;0.20;0.10;;;;;;;2.23;73.19;100160.94;5064770;28;20938;-56
2021/04/07 04:54:48;;;;;;;0.20;0.10;;;;;;;2.25;73.32;100159.22;5059140;28;20493;-56
2021/04/07 04:57:15;;;;;;;0.20;0.10;;;;;;;2.17;73.28;100157.41;5072827;28;20457;-56
2021/04/07 04:59:42;;;;;;;0.30;0.20;;;;;;;2.25;73.08;100151.34;5059185;28;20982;-57
2021/04/07 05:02:08;;;;;;;0.20;0.20;;;;;;;2.36;72.37;100159.25;5059552;28;20854;-56
2021/04/07 05:04:34;;;;;;;0.20;0.10;;;;;;;2.24;72.93;100164.44;5066191;28;20450;-57
2021/04/07 05:07:00;;;;;;;0.20;0.10;;;;;;;2.21;72.58;100164.44;5060066;28;20451;-57
2021/04/07 05:09:27;;;;;;;0.20;0.10;;;;;;;2.05;73.25;100164.38;5065846;28;21003;-57
2021/04/07 05:11:53;;;;;;;0.20;0.13;;;;;;;2.21;73.94;100164.44;5064264;28;20446;-57
2021/04/07 05:14:19;;;;;;;0.20;0.10;;;;;;;2.33;73.03;100167.97;5058864;28;20486;-57
2021/04/07 05:16:45;;;;;;;0.20;0.10;;;;;;;2.02;74.11;100172.22;5059176;28;20458;-57
2021/04/07 05:19:12;;;;;;;0.20;0.10;;;;;;;1.93;74.49;100181.81;5066055;28;20471;-57
2021/04/07 05:21:38;;;;;;;0.20;0.10;;;;;;;1.88;75.68;100176.53;5065589;28;20465;-57
2021/04/07 05:24:06;;;;;;;0.20;0.10;;;;;;;1.77;75.09;100188.69;5058846;28;20449;-57
2021/04/07 05:26:34;;;;;;;0.20;0.10;;;;;;;2.16;74.51;100189.75;5059140;28;20503;-64
2021/04/07 05:29:00;;;;;;;0.20;0.10;;;;;;;2.36;74.00;100180.22;5059175;28;20825;-57
2021/04/07 05:31:26;;;;;;;0.20;0.20;;;;;;;2.19;74.55;100187.13;5058846;28;20459;-57
2021/04/07 05:33:52;;;;;;;0.20;0.10;;;;;;;2.32;74.60;100199.41;5065420;28;20482;-57
2021/04/07 05:36:18;;;;;;;0.20;0.10;;;;;;;2.36;74.62;100198.59;5065699;28;20446;-57
2021/04/07 05:38:45;;;;;;;0.20;0.10;;;;;;;2.66;72.98;100201.28;5065721;28;20504;-57
2021/04/07 05:41:11;;;;;;;0.20;0.10;;;;;;;2.92;72.20;100203.06;5065307;28;20450;-57
2021/04/07 05:43:38;;;;;;;0.20;0.10;;;;;;;4.05;69.78;100195.88;5059145;28;20480;-57
2021/04/07 05:46:05;;;;;;;0.20;0.10;;;;;;;3.63;69.60;100196.00;5058397;28;20450;-57
2021/04/07 05:48:32;;;;;;;0.20;0.10;;;;;;;3.30;71.29;100204.81;5064496;28;20988;-57
2021/04/07 05:51:02;;;;;;;0.20;0.10;;;;;;;3.41;70.80;100210.91;5067437;28;20446;-57
2021/04/07 05:53:29;;;;;;;0.20;0.10;;;;;;;2.93;72.99;100210.06;5063344;28;20872;-57
2021/04/07 05:55:57;;;;;;;0.20;0.10;;;;;;;2.91;74.47;100220.56;5059651;28;20612;-57
2021/04/07 05:58:24;;;;;;;0.53;0.50;;;;;;;3.13;74.01;100216.19;5043749;28;20450;-56
2021/04/07 06:00:51;;;;;;;0.60;0.60;;;;;;;2.61;77.02;100220.50;5065703;28;20523;-58
2021/04/07 06:03:18;;;;;;;0.20;0.10;;;;;;;2.83;76.73;100222.28;5059980;28;20453;-58
2021/04/07 06:05:46;;;;;;;0.20;0.10;;;;;;;3.01;77.54;100231.06;5065442;28;20463;-58
2021/04/07 06:08:13;;;;;;;0.20;0.10;;;;;;;3.03;77.07;100235.47;5061788;28;20449;-58
2021/04/07 06:10:43;;;;;;;0.20;0.10;;;;;;;3.54;76.36;100225.78;5058501;28;20474;-58
2021/04/07 06:13:10;;;;;;;0.20;0.10;;;;;;;3.47;75.95;100221.44;5061538;28;20480;-58
2021/04/07 06:15:38;;;;;;;0.20;0.10;;;;;;;3.70;74.76;100229.28;5066937;28;20540;-58
2021/04/07 06:18:07;;;;;;;0.20;0.10;;;;;;;3.62;74.80;100226.69;5067038;28;20449;-58
2021/04/07 06:20:40;;;;;;;0.20;0.10;;;;;;;3.60;75.45;100232.81;5056118;28;20462;-58
2021/04/07 06:23:07;;;;;;;0.20;0.10;;;;;;;3.62;75.25;100234.56;5068119;28;20961;-57
2021/04/07 06:25:35;;;;;;;0.20;0.10;;;;;;;3.57;74.35;100233.69;5061393;28;20495;-58
2021/04/07 06:28:05;;;;;;;0.20;0.10;;;;;;;3.50;74.36;100235.44;5063176;28;20482;-58
2021/04/07 06:30:48;;;;;;;0.20;0.10;;;;;;;3.74;73.41;100241.56;5049445;28;20481;-58
2021/04/07 06:33:18;;;;;;;0.20;0.10;;;;;;;3.70;73.29;100240.69;5061863;28;20449;-58
2021/04/07 06:35:50;;;;;;;0.20;0.10;;;;;;;3.64;73.20;100240.69;5065222;28;20504;-58
2021/04/07 06:38:17;;;;;;;0.20;0.10;;;;;;;3.49;72.18;100249.47;5062490;28;20946;-58
2021/04/07 06:40:43;;;;;;;0.20;0.10;;;;;;;3.49;71.86;100252.09;5064974;28;20466;-58
2021/04/07 06:43:11;;;;;;;0.20;0.10;;;;;;;3.73;71.12;100245.06;5068906;28;20447;-58
2021/04/07 06:45:38;;;;;;;0.20;0.10;;;;;;;3.57;71.11;100249.47;5065960;28;20442;-58
2021/04/07 06:48:09;;;;;;;0.20;0.10;;;;;;;3.83;70.41;100262.53;5061974;28;20523;-58
2021/04/07 06:50:37;;;;;;;0.20;0.10;;;;;;;3.72;71.03;100261.72;5063858;28;20513;-58
2021/04/07 06:53:09;;;;;;;0.20;0.10;;;;;;;3.71;70.36;100257.34;5068467;28;20447;-58
2021/04/07 06:55:36;;;;;;;0.20;0.10;;;;;;;3.85;70.76;100260.81;5067809;28;20490;-58
2021/04/07 06:58:07;;;;;;;0.20;0.10;;;;;;;3.81;70.30;100266.94;5061722;28;20458;-58
2021/04/07 07:00:35;;;;;;;0.20;0.10;;;;;;;3.88;70.17;100262.56;5061805;28;20482;-58
2021/04/07 07:03:06;;;;;;;0.20;0.10;;;;;;;4.10;70.22;100266.88;5067910;28;20454;-58
2021/04/07 07:05:36;;;;;;;0.20;0.10;;;;;;;3.92;70.91;100249.38;5068727;28;20448;-57
2021/04/07 07:08:06;;;;;;;0.20;0.10;;;;;;;4.13;69.90;100259.00;5063391;28;20464;-58
2021/04/07 07:10:34;;;;;;;0.20;0.10;;;;;;;3.93;70.39;100260.78;5061276;28;21050;-58
2021/04/07 07:13:00;;;;;;;0.20;0.10;;;;;;;4.12;69.49;100255.50;5066785;28;20496;-57
2021/04/07 07:15:27;;;;;;;0.20;0.20;;;;;;;4.06;69.24;100262.50;5066736;28;20497;-57
2021/04/07 07:17:53;;;;;;;0.20;0.10;;;;;;;4.14;69.62;100261.63;5063773;28;20453;-58
2021/04/07 07:20:27;;;;;;;0.20;0.10;;;;;;;4.09;69.52;100273.00;5061509;28;20478;-58
2021/04/07 07:22:53;;;;;;;0.20;0.10;;;;;;;4.43;68.94;100268.53;5064945;28;20455;-58
2021/04/07 07:25:19;;;;;;;0.20;0.10;;;;;;;4.41;69.21;100267.66;5067912;28;20809;-58
2021/04/07 07:27:46;;;;;;;0.20;0.10;;;;;;;4.41;68.53;100263.28;5065470;28;20481;-57
2021/04/07 07:30:13;;;;;;;0.20;0.10;;;;;;;4.69;68.97;100274.56;5061035;28;20474;-57
2021/04/07 07:32:42;;;;;;;0.20;0.10;;;;;;;5.02;67.29;100262.94;5074659;28;20457;-58
2021/04/07 07:35:11;;;;;;;0.20;0.13;;;;;;;5.05;67.12;100276.06;5061408;28;20485;-58
2021/04/07 07:37:39;;;;;;;0.30;0.10;;;;;;;5.31;67.39;100275.03;5062780;28;20451;-58
2021/04/07 07:40:21;;;;;;;0.20;0.20;;;;;;;5.10;67.51;100285.72;5068119;28;20471;-58
2021/04/07 07:42:48;;;;;;;0.20;0.13;;;;;;;5.29;67.83;100282.06;5067501;28;20842;-58
2021/04/07 07:45:23;;;;;;;0.20;0.10;;;;;;;5.05;68.08;100289.25;5061484;28;20445;-58
2021/04/07 07:48:20;;;;;;;0.23;0.10;;;;;;;4.93;69.17;100291.94;5060599;28;20438;-58
2021/04/07 07:50:48;;;;;;;0.20;0.10;;;;;;;4.81;69.45;100286.78;5061012;28;20475;-59
2021/04/07 07:53:21;;;;;;;0.20;0.10;;;;;;;4.80;69.62;100287.66;5089940;28;20455;-59
2021/04/07 07:55:53;;;;;;;0.23;0.10;;;;;;;4.71;70.39;100288.56;5060745;28;20540;-58
2021/04/07 07:58:28;;;;;;;0.20;0.20;;;;;;;4.64;69.52;100291.22;5066109;28;20446;-57
2021/04/07 08:01:04;;;;;;;0.20;0.10;;;;;;;4.73;69.67;100285.94;5067508;28;20461;-59
2021/04/07 08:03:31;;;;;;;0.20;0.20;;;;;;;5.06;68.87;100283.09;5061543;28;20450;-59
2021/04/07 08:06:00;;;;;;;0.20;0.10;;;;;;;5.02;68.83;100276.09;5067199;28;20520;-56
2021/04/07 08:08:43;;;;;;;0.20;0.20;;;;;;;5.40;67.08;100282.88;5066992;28;20445;-56
2021/04/07 08:11:10;;;;;;;0.30;0.20;;;;;;;5.33;66.84;100287.31;5061318;28;20456;-56
2021/04/07 08:13:40;;;;;;;0.20;0.20;;;;;;;5.38;67.15;100283.78;5060395;28;20944;-57
2021/04/07 08:16:06;;;;;;;0.20;0.10;;;;;;;5.45;66.98;100286.34;5064982;28;20454;-57
2021/04/07 08:18:34;;;;;;;0.20;0.13;;;;;;;5.51;65.84;100290.72;5068375;28;20477;-57
2021/04/07 08:21:01;;;;;;;0.20;0.10;;;;;;;5.28;67.05;100290.88;5066233;28;20451;-58
2021/04/07 08:23:30;;;;;;;0.20;0.20;;;;;;;5.17;67.52;100297.97;5067281;28;20821;-57
2021/04/07 08:25:59;;;;;;;0.20;0.10;;;;;;;5.29;66.63;100298.75;5061585;28;20472;-57
2021/04/07 08:28:28;;;;;;;0.20;0.10;;;;;;;5.33;66.76;100300.47;5059860;28;20470;-57
2021/04/07 08:30:55;;;;;;;0.30;0.13;;;;;;;5.20;67.36;100292.66;5064572;28;20451;-57
2021/04/07 08:33:22;;;;;;;0.20;0.13;;;;;;;5.08;66.43;100298.03;5067124;28;20507;-58
2021/04/07 08:35:53;;;;;;;0.20;0.10;;;;;;;5.36;66.34;100302.25;5063390;28;20489;-57
2021/04/07 08:38:33;;;;;;;0.20;0.10;;;;;;;5.27;65.50;100295.25;5059270;28;20507;-57
2021/04/07 08:41:22;;;;;;;0.20;0.10;;;;;;;5.59;66.25;100302.03;5060693;28;20464;-58
2021/04/07 08:43:51;;;;;;;0.30;0.20;;;;;;;5.61;65.75;100290.59;5051536;28;20446;-57
2021/04/07 08:46:26;;;;;;;0.30;0.20;;;;;;;5.78;64.13;100295.75;5060143;28;20519;-57
2021/04/07 08:48:53;;;;;;;0.20;0.17;;;;;;;5.66;64.58;100293.22;5062767;28;20462;-57
2021/04/07 08:51:22;;;;;;;0.30;0.10;;;;;;;6.11;64.12;100285.78;5070436;28;20528;-57
2021/04/07 08:53:51;;;;;;;0.30;0.20;;;;;;;5.73;64.88;100294.00;5061732;28;20948;-57
2021/04/07 08:56:28;;;;;;;0.30;0.20;;;;;;;5.79;63.97;100286.06;5070883;28;20458;-58
2021/04/07 08:59:04;;;;;;;0.20;0.20;;;;;;;5.80;63.08;100283.41;5060015;28;20536;-57
2021/04/07 09:01:30;;;;;;;0.20;0.20;;;;;;;5.65;62.47;100292.34;5048199;28;20838;-58
2021/04/07 09:04:04;;;;;;;0.30;0.20;;;;;;;5.51;63.51;100302.13;5057914;28;20952;-57
2021/04/07 09:06:30;;;;;;;0.30;0.20;;;;;;;5.45;63.56;100304.78;5064192;28;20528;-57
2021/04/07 09:08:57;;;;;;;0.30;0.13;;;;;;;5.36;63.35;100302.25;5066261;28;20473;-58
2021/04/07 09:11:36;;;;;;;0.30;0.20;;;;;;;5.44;63.76;100307.44;5062032;28;20450;-57
2021/04/07 09:14:04;;;;;;;0.20;0.20;;;;;;;5.58;64.13;100322.25;5059069;28;20465;-57
2021/04/07 09:16:34;;;;;;;0.20;0.10;;;;;;;5.46;63.31;100311.81;5061952;28;20451;-57
2021/04/07 09:19:15;;;;;;;0.20;0.10;;;;;;;5.29;61.89;100334.78;5065896;28;20471;-57
2021/04/07 09:22:07;;;;;;;0.20;0.10;;;;;;;5.20;62.78;100337.47;5066055;28;20449;-57
2021/04/07 09:24:41;;;;;;;0.20;0.20;;;;;;;5.29;62.28;100318.97;5053371;28;20488;-57
2021/04/07 09:27:20;;;;;;;0.20;0.10;;;;;;;5.33;62.23;100334.75;5058792;28;20449;-57
2021/04/07 09:29:46;;;;;;;0.20;0.10;;;;;;;5.59;62.00;100321.38;5058879;28;20500;-57
2021/04/07 09:32:17;;;;;;;0.20;0.10;;;;;;;5.48;62.26;100327.59;5066039;28;20447;-57
2021/04/07 09:34:44;;;;;;;0.20;0.10;;;;;;;5.58;61.72;100332.81;5053557;28;20493;-57
2021/04/07 09:37:14;;;;;;;0.20;0.10;;;;;;;5.44;62.23;100331.16;5064293;28;20450;-57
2021/04/07 09:39:41;;;;;;;0.30;0.10;;;;;;;5.21;63.01;100333.97;5065540;28;20466;-57
2021/04/07 09:42:08;;;;;;;0.20;0.20;;;;;;;5.27;62.60;100336.56;5060115;28;20457;-57
2021/04/07 09:44:34;;;;;;;0.20;0.10;;;;;;;5.18;64.49;100340.09;5057953;28;20489;-57
2021/04/07 09:47:01;;;;;;;0.20;0.10;;;;;;;4.96;65.86;100352.53;5064433;28;20446;-57
2021/04/07 09:49:28;;;;;;;0.30;0.13;;;;;;;5.02;67.80;100363.03;5064316;28;20485;-57
2021/04/07 09:51:55;;;;;;;0.30;0.17;;;;;;;4.85;69.54;100367.50;5059839;28;20446;-58
2021/04/07 09:54:24;;;;;;;0.20;0.10;;;;;;;4.60;72.44;100368.47;5058537;28;20483;-57
2021/04/07 09:57:00;;;;;;;0.30;0.10;;;;;;;4.49;75.33;100381.66;5062540;28;20458;-57
2021/04/07 09:59:41;;;;;;;0.20;0.10;;;;;;;4.57;76.54;100368.50;5065204;28;20501;-57
2021/04/07 10:02:35;;;;;;;0.20;0.10;;;;;;;4.64;76.12;100388.63;5064995;28;20533;-57
2021/04/07 10:05:30;;;;;;;0.20;0.10;;;;;;;4.37;76.03;100390.44;5065166;28;20551;-57
2021/04/07 10:08:23;;;;;;;0.33;0.33;;;;;;;4.19;79.30;100398.38;5062726;28;20496;-57
2021/04/07 10:10:49;;;;;;;0.20;0.10;;;;;;;4.12;80.80;100384.38;5065650;28;20481;-57
2021/04/07 10:13:17;;;;;;;0.20;0.10;;;;;;;4.10;80.98;100386.09;5064165;28;20453;-57
2021/04/07 10:15:43;;;;;;;0.20;0.10;;;;;;;4.58;81.66;100384.28;5053233;28;20494;-57
2021/04/07 10:18:11;;;;;;;0.20;0.10;;;;;;;4.73;81.93;100386.84;5063631;28;20457;-58
2021/04/07 10:20:38;;;;;;;0.20;0.20;;;;;;;4.64;82.03;100388.63;5058628;28;20523;-57
2021/04/07 10:23:09;;;;;;;0.20;0.10;;;;;;;4.64;81.86;100396.53;5059323;28;20447;-57
2021/04/07 10:25:36;;;;;;;0.20;0.10;;;;;;;4.39;81.50;100396.63;5065666;28;20447;-57
2021/04/07 10:28:04;;;;;;;0.20;0.10;;;;;;;4.44;81.38;100402.72;5065222;28;20462;-57
2021/04/07 10:30:41;;;;;;;0.20;0.10;;;;;;;4.54;80.24;100400.09;5045245;28;20482;-57
2021/04/07 10:33:07;;;;;;;0.40;0.40;;;;;;;4.41;80.63;100396.59;5058453;28;20454;-57
2021/04/07 10:35:35;;;;;;;0.20;0.10;;;;;;;4.38;79.75;100392.19;5047172;28;20542;-57
2021/04/07 10:38:07;;;;;;;0.20;0.10;;;;;;;4.54;78.78;100389.56;5058124;28;20443;-57
2021/04/07 10:40:35;;;;;;;0.20;0.10;;;;;;;4.61;78.00;100393.91;5062505;28;20470;-57
2021/04/07 10:43:22;;;;;;;0.20;0.20;;;;;;;4.45;75.50;100403.59;5065382;28;20536;-57
2021/04/07 10:46:03;;;;;;;0.20;0.10;;;;;;;4.58;75.91;100396.56;5063662;28;20991;-57
2021/04/07 10:48:37;;;;;;;0.20;0.10;;;;;;;4.85;75.94;100390.34;5063408;28;20454;-57
2021/04/07 10:51:05;;;;;;;0.20;0.10;;;;;;;4.59;76.48;100404.44;5064795;28;20850;-57
2021/04/07 10:53:38;;;;;;;0.20;0.10;;;;;;;4.90;75.29;100413.13;5060550;28;20518;-57
2021/04/07 10:56:17;;;;;;;0.20;0.10;;;;;;;4.85;73.76;100407.00;5057891;28;20572;-56
2021/04/07 10:58:43;;;;;;;0.20;0.10;;;;;;;4.70;73.29;100410.56;5059977;28;20451;-56
2021/04/07 11:01:10;;;;;;;0.20;0.10;;;;;;;4.73;72.90;100412.31;5064762;28;20486;-56
2021/04/07 11:03:47;;;;;;;0.20;0.10;;;;;;;4.61;72.43;100402.69;5063120;28;20446;-56
2021/04/07 11:06:19;;;;;;;0.20;0.10;;;;;;;4.66;73.32;100402.66;5090989;28;20444;-56
2021/04/07 11:08:46;;;;;;;0.20;0.10;;;;;;;4.71;72.52;100422.84;5061344;28;20443;-57
2021/04/07 11:11:20;;;;;;;0.20;0.10;;;;;;;4.51;73.27;100418.50;5067684;28;20450;-56
2021/04/07 11:13:47;;;;;;;0.20;0.13;;;;;;;4.40;74.42;100422.03;5068463;28;20778;-56
2021/04/07 11:16:14;;;;;;;0.20;0.10;;;;;;;4.77;74.71;100419.31;5063557;28;20490;-56
2021/04/07 11:18:40;;;;;;;0.20;0.10;;;;;;;4.63;74.74;100408.81;5061387;28;20568;-56
2021/04/07 11:21:08;;;;;;;0.20;0.20;;;;;;;4.89;73.57;100399.97;5064972;28;20450;-56
2021/04/07 11:23:35;;;;;;;0.20;0.10;;;;;;;4.99;74.66;100401.69;5068601;28;20516;-56
2021/04/07 11:26:09;;;;;;;0.20;0.20;;;;;;;4.98;74.16;100406.09;5063642;28;20537;-56
2021/04/07 11:28:35;;;;;;;0.20;0.10;;;;;;;5.04;74.13;100408.66;5061272;28;20457;-56
2021/04/07 11:31:09;;;;;;;0.20;0.10;;;;;;;4.96;73.55;100406.97;5063060;28;20952;-57
2021/04/07 11:46:35;;;;;;;0.20;0.10;;;;;;;5.65;71.96;100408.34;5067942;28;20447;-56
2021/04/07 11:49:02;;;;;;;0.20;0.10;;;;;;;5.28;72.09;100412.09;5065558;28;20556;-57
2021/04/07 11:51:29;;;;;;;0.20;0.20;;;;;;;5.28;73.11;100410.31;5060965;28;20446;-57
2021/04/07 11:53:55;;;;;;;0.20;0.10;;;;;;;5.22;73.44;100404.22;5062398;28;20554;-57